sensor_id;sensor_type;location;lat;lon;timestamp;pressure;altitude;pressure_sealevel;temperature;humidity
62791;BME280;48830;53.426;10.300;2022-07-22T00:01:56;101658.84;;;19.13;100.00
62791;BME280;48830;53.426;10.300;2022-07-22T00:04:21;101659.69;;;19.15;100.00
62791;BME280;48830;53.426;10.300;2022-07-22T00:06:47;101670.16;;;19.13;100.00
62791;BME280;48830;53.426;10.300;2022-07-22T00:09:12;101668.38;;;19.15;100.00
62791;BME280;48830;53.426;10.300;2022-07-22T00:11:38;101672.75;;;19.17;100.00
62791;BME280;48830;53.426;10.300;2022-07-22T00:14:03;101670.13;;;19.15;100.00
62791;BME280;48830;53.426;10.300;2022-07-22T00:16:29;101670.13;;;19.15;100.00
62791;BME280;48830;53.426;10.300;2022-07-22T00:18:54;101666.66;;;19.14;100.00
62791;BME280;48830;53.426;10.300;2022-07-22T00:21:20;101658.84;;;19.16;100.00
62791;BME280;48830;53.426;10.300;2022-07-22T00:23:45;101662.34;;;19.12;100.00
62791;BME280;48830;53.426;10.300;2022-07-22T00:26:11;101665.81;;;19.12;100.00
62791;BME280;48830;53.426;10.300;2022-07-22T00:28:36;101664.03;;;19.14;100.00
62791;BME280;48830;53.426;10.300;2022-07-22T00:31:02;101664.06;;;19.13;100.00
62791;BME280;48830;53.426;10.300;2022-07-22T00:33:27;101659.69;;;19.15;100.00
62791;BME280;48830;53.426;10.300;2022-07-22T00:35:53;101665.78;;;19.15;100.00
62791;BME280;48830;53.426;10.300;2022-07-22T00:38:18;101670.13;;;19.17;100.00
62791;BME280;48830;53.426;10.300;2022-07-22T00:40:44;101668.38;;;19.15;100.00
62791;BME280;48830;53.426;10.300;2022-07-22T00:43:09;101665.78;;;19.15;100.00
62791;BME280;48830;53.426;10.300;2022-07-22T00:45:35;101664.88;;;19.20;100.00
62791;BME280;48830;53.426;10.300;2022-07-22T00:48:00;101671.84;;;19.22;100.00
62791;BME280;48830;53.426;10.300;2022-07-22T00:50:26;101672.69;;;19.23;100.00
62791;BME280;48830;53.426;10.300;2022-07-22T00:52:52;101669.25;;;19.18;100.00
62791;BME280;48830;53.426;10.300;2022-07-22T00:55:18;101669.28;;;19.16;100.00
62791;BME280;48830;53.426;10.300;2022-07-22T00:57:44;101669.25;;;19.18;100.00
62791;BME280;48830;53.426;10.300;2022-07-22T01:00:13;101661.41;;;19.19;100.00
62791;BME280;48830;53.426;10.300;2022-07-22T01:02:39;101664.00;;;19.21;100.00
62791;BME280;48830;53.426;10.300;2022-07-22T01:05:05;101662.31;;;19.17;100.00
62791;BME280;48830;53.426;10.300;2022-07-22T01:07:31;101657.09;;;19.18;100.00
62791;BME280;48830;53.426;10.300;2022-07-22T01:09:57;101664.00;;;19.21;100.00
62791;BME280;48830;53.426;10.300;2022-07-22T01:12:22;101658.78;;;19.21;100.00
62791;BME280;48830;53.426;10.300;2022-07-22T01:14:48;101658.78;;;19.21;100.00
62791;BME280;48830;53.426;10.300;2022-07-22T01:17:13;101670.97;;;19.23;100.00
62791;BME280;48830;53.426;10.300;2022-07-22T01:19:39;101684.94;;;19.08;100.00
62791;BME280;48830;53.426;10.300;2022-07-22T01:22:06;101678.91;;;19.00;100.00
62791;BME280;48830;53.426;10.300;2022-07-22T01:24:31;101675.44;;;18.97;100.00
62791;BME280;48830;53.426;10.300;2022-07-22T01:26:57;101679.81;;;18.96;100.00
62791;BME280;48830;53.426;10.300;2022-07-22T01:29:23;101690.22;;;18.93;100.00
62791;BME280;48830;53.426;10.300;2022-07-22T01:31:48;101684.19;;;18.90;100.00
62791;BME280;48830;53.426;10.300;2022-07-22T01:34:14;101683.31;;;18.89;100.00
62791;BME280;48830;53.426;10.300;2022-07-22T01:36:39;101684.22;;;18.83;100.00
62791;BME280;48830;53.426;10.300;2022-07-22T01:39:05;101682.50;;;18.79;100.00
62791;BME280;48830;53.426;10.300;2022-07-22T01:41:31;101680.75;;;18.78;100.00
62791;BME280;48830;53.426;10.300;2022-07-22T01:43:57;101686.84;;;18.79;100.00
62791;BME280;48830;53.426;10.300;2022-07-22T01:46:22;101685.09;;;18.72;100.00
62791;BME280;48830;53.426;10.300;2022-07-22T01:48:50;101689.44;;;18.71;100.00
62791;BME280;48830;53.426;10.300;2022-07-22T01:51:17;101689.47;;;18.68;100.00
62791;BME280;48830;53.426;10.300;2022-07-22T01:53:42;101693.78;;;18.65;100.00
62791;BME280;48830;53.426;10.300;2022-07-22T01:56:08;101696.41;;;18.63;100.00
62791;BME280;48830;53.426;10.300;2022-07-22T01:58:39;101700.72;;;18.67;100.00
62791;BME280;48830;53.426;10.300;2022-07-22T02:01:05;101704.19;;;18.66;100.00
62791;BME280;48830;53.426;10.300;2022-07-22T02:03:31;101708.56;;;18.64;100.00
62791;BME280;48830;53.426;10.300;2022-07-22T02:05:56;101710.28;;;18.65;100.00
62791;BME280;48830;53.426;10.300;2022-07-22T02:08:26;101712.91;;;18.54;100.00
62791;BME280;48830;53.426;10.300;2022-07-22T02:11:10;101712.06;;;18.49;100.00
62791;BME280;48830;53.426;10.300;2022-07-22T02:13:47;101719.91;;;18.43;100.00
62791;BME280;48830;53.426;10.300;2022-07-22T02:16:13;101719.03;;;18.36;100.00
62791;BME280;48830;53.426;10.300;2022-07-22T02:18:39;101723.38;;;18.34;100.00
62791;BME280;48830;53.426;10.300;2022-07-22T02:21:04;101722.53;;;18.28;100.00
62791;BME280;48830;53.426;10.300;2022-07-22T02:23:30;101725.16;;;18.16;100.00
62791;BME280;48830;53.426;10.300;2022-07-22T02:25:55;101720.81;;;18.10;99.29
62791;BME280;48830;53.426;10.300;2022-07-22T02:28:21;101722.56;;;18.03;99.35
62791;BME280;48830;53.426;10.300;2022-07-22T02:30:47;101732.09;;;18.04;99.13
62791;BME280;48830;53.426;10.300;2022-07-22T02:33:12;101732.97;;;17.99;98.92
62791;BME280;48830;53.426;10.300;2022-07-22T02:35:40;101739.03;;;17.96;98.74
62791;BME280;48830;53.426;10.300;2022-07-22T02:38:07;101737.31;;;17.92;98.96
62791;BME280;48830;53.426;10.300;2022-07-22T02:40:33;101743.34;;;17.85;99.24
62791;BME280;48830;53.426;10.300;2022-07-22T02:42:59;101739.88;;;17.86;99.26
62791;BME280;48830;53.426;10.300;2022-07-22T02:45:25;101743.34;;;17.74;99.60
62791;BME280;48830;53.426;10.300;2022-07-22T02:47:53;101740.75;;;17.73;99.42
62791;BME280;48830;53.426;10.300;2022-07-22T02:50:19;101746.78;;;17.66;100.00
62791;BME280;48830;53.426;10.300;2022-07-22T02:52:44;101752.84;;;17.66;100.00
62791;BME280;48830;53.426;10.300;2022-07-22T02:55:12;101759.75;;;17.56;99.95
62791;BME280;48830;53.426;10.300;2022-07-22T02:57:37;101758.03;;;17.55;100.00
62791;BME280;48830;53.426;10.300;2022-07-22T03:00:06;101769.28;;;17.53;99.53
62791;BME280;48830;53.426;10.300;2022-07-22T03:02:34;101764.09;;;17.57;99.77
62791;BME280;48830;53.426;10.300;2022-07-22T03:05:01;101763.22;;;17.52;99.39
62791;BME280;48830;53.426;10.300;2022-07-22T03:07:26;101764.94;;;17.53;99.38
62791;BME280;48830;53.426;10.300;2022-07-22T03:09:52;101764.09;;;17.50;99.66
62791;BME280;48830;53.426;10.300;2022-07-22T03:12:17;101773.59;;;17.46;98.99
62791;BME280;48830;53.426;10.300;2022-07-22T03:14:43;101775.34;;;17.44;98.56
62791;BME280;48830;53.426;10.300;2022-07-22T03:17:09;101774.47;;;17.45;98.33
62791;BME280;48830;53.426;10.300;2022-07-22T03:19:36;101775.34;;;17.44;98.98
62791;BME280;48830;53.426;10.300;2022-07-22T03:22:01;101776.19;;;17.43;98.81
62791;BME280;48830;53.426;10.300;2022-07-22T03:24:27;101774.47;;;17.44;98.38
62791;BME280;48830;53.426;10.300;2022-07-22T03:26:53;101778.78;;;17.40;98.56
62791;BME280;48830;53.426;10.300;2022-07-22T03:29:18;101773.59;;;17.40;98.15
62791;BME280;48830;53.426;10.300;2022-07-22T03:31:44;101776.19;;;17.39;98.26
62791;BME280;48830;53.426;10.300;2022-07-22T03:34:10;101778.78;;;17.43;98.16
62791;BME280;48830;53.426;10.300;2022-07-22T03:36:39;101773.56;;;17.43;98.25
62791;BME280;48830;53.426;10.300;2022-07-22T03:39:06;101771.00;;;17.39;98.64
62791;BME280;48830;53.426;10.300;2022-07-22T03:41:32;101782.25;;;17.42;98.21
62791;BME280;48830;53.426;10.300;2022-07-22T03:43:57;101785.72;;;17.41;98.49
62791;BME280;48830;53.426;10.300;2022-07-22T03:46:23;101789.16;;;17.34;98.29
62791;BME280;48830;53.426;10.300;2022-07-22T03:48:49;101783.09;;;17.27;98.37
62791;BME280;48830;53.426;10.300;2022-07-22T03:51:14;101782.22;;;17.30;98.31
62791;BME280;48830;53.426;10.300;2022-07-22T03:53:40;101783.94;;;17.28;98.01
62791;BME280;48830;53.426;10.300;2022-07-22T03:56:06;101792.59;;;17.31;97.34
62791;BME280;48830;53.426;10.300;2022-07-22T03:58:32;101794.34;;;17.28;98.10
62791;BME280;48830;53.426;10.300;2022-07-22T04:00:59;101789.16;;;17.28;97.68
62791;BME280;48830;53.426;10.300;2022-07-22T04:03:24;101797.81;;;17.28;97.41
62791;BME280;48830;53.426;10.300;2022-07-22T04:06:25;101793.47;;;17.30;97.68
62791;BME280;48830;53.426;10.300;2022-07-22T04:08:58;101794.34;;;17.31;97.43
62791;BME280;48830;53.426;10.300;2022-07-22T04:11:24;101791.75;;;17.29;98.17
62791;BME280;48830;53.426;10.300;2022-07-22T04:13:49;101796.91;;;17.20;98.87
62791;BME280;48830;53.426;10.300;2022-07-22T04:16:15;101787.41;;;17.24;98.84
62791;BME280;48830;53.426;10.300;2022-07-22T04:18:50;101794.31;;;17.25;98.89
62791;BME280;48830;53.426;10.300;2022-07-22T04:21:19;101789.13;;;17.25;99.29
62791;BME280;48830;53.426;10.300;2022-07-22T04:23:51;101796.91;;;17.25;98.47
62791;BME280;48830;53.426;10.300;2022-07-22T04:26:24;101799.53;;;17.29;98.69
62791;BME280;48830;53.426;10.300;2022-07-22T04:28:49;101793.44;;;17.26;99.02
62791;BME280;48830;53.426;10.300;2022-07-22T04:31:15;101801.28;;;17.29;99.51
62791;BME280;48830;53.426;10.300;2022-07-22T04:33:41;101804.72;;;17.25;100.00
62791;BME280;48830;53.426;10.300;2022-07-22T04:36:07;101807.28;;;17.19;100.00
62791;BME280;48830;53.426;10.300;2022-07-22T04:38:33;101804.69;;;17.17;100.00
62791;BME280;48830;53.426;10.300;2022-07-22T04:41:02;101800.38;;;17.19;100.00
62791;BME280;48830;53.426;10.300;2022-07-22T04:43:28;101802.94;;;17.12;100.00
62791;BME280;48830;53.426;10.300;2022-07-22T04:45:55;101815.03;;;17.11;100.00
62791;BME280;48830;53.426;10.300;2022-07-22T04:48:20;101815.03;;;17.10;100.00
62791;BME280;48830;53.426;10.300;2022-07-22T04:50:47;101821.97;;;17.08;100.00
62791;BME280;48830;53.426;10.300;2022-07-22T04:53:13;101824.56;;;17.06;100.00
62791;BME280;48830;53.426;10.300;2022-07-22T04:55:38;101816.75;;;17.01;100.00
62791;BME280;48830;53.426;10.300;2022-07-22T04:58:04;101827.13;;;17.04;100.00
62791;BME280;48830;53.426;10.300;2022-07-22T05:00:30;101813.28;;;17.05;100.00
62791;BME280;48830;53.426;10.300;2022-07-22T05:02:56;101813.28;;;17.02;100.00
62791;BME280;48830;53.426;10.300;2022-07-22T05:05:22;101824.47;;;16.92;100.00
62791;BME280;48830;53.426;10.300;2022-07-22T05:07:48;101825.38;;;16.99;100.00
62791;BME280;48830;53.426;10.300;2022-07-22T05:10:15;101822.75;;;16.94;100.00
62791;BME280;48830;53.426;10.300;2022-07-22T05:12:40;101817.53;;;16.94;100.00
62791;BME280;48830;53.426;10.300;2022-07-22T05:15:06;101821.91;;;16.97;100.00
62791;BME280;48830;53.426;10.300;2022-07-22T05:17:32;101826.22;;;16.93;100.00
62791;BME280;48830;53.426;10.300;2022-07-22T05:20:07;101820.16;;;16.94;100.00
62791;BME280;48830;53.426;10.300;2022-07-22T05:22:33;101828.84;;;16.99;100.00
62791;BME280;48830;53.426;10.300;2022-07-22T05:25:02;101829.69;;;16.98;100.00
62791;BME280;48830;53.426;10.300;2022-07-22T05:27:28;101825.44;;;17.07;100.00
62791;BME280;48830;53.426;10.300;2022-07-22T05:29:53;101831.47;;;17.02;100.00
62791;BME280;48830;53.426;10.300;2022-07-22T05:32:19;101828.03;;;17.11;100.00
62791;BME280;48830;53.426;10.300;2022-07-22T05:34:46;101836.75;;;17.18;100.00
62791;BME280;48830;53.426;10.300;2022-07-22T05:37:11;101828.09;;;17.17;100.00
62791;BME280;48830;53.426;10.300;2022-07-22T05:39:37;101830.69;;;17.22;100.00
62791;BME280;48830;53.426;10.300;2022-07-22T05:42:02;101830.69;;;17.25;100.00
62791;BME280;48830;53.426;10.300;2022-07-22T05:44:28;101837.72;;;17.38;100.00
62791;BME280;48830;53.426;10.300;2022-07-22T05:46:54;101835.97;;;17.40;100.00
62791;BME280;48830;53.426;10.300;2022-07-22T05:49:20;101838.63;;;17.49;99.52
62791;BME280;48830;53.426;10.300;2022-07-22T05:51:55;101835.97;;;17.48;98.72
62791;BME280;48830;53.426;10.300;2022-07-22T05:54:25;101842.88;;;17.35;97.83
62791;BME280;48830;53.426;10.300;2022-07-22T05:56:51;101836.88;;;17.50;97.33
62791;BME280;48830;53.426;10.300;2022-07-22T05:59:16;101842.09;;;17.54;97.62
62791;BME280;48830;53.426;10.300;2022-07-22T06:01:42;101843.81;;;17.54;97.61
62791;BME280;48830;53.426;10.300;2022-07-22T06:04:27;101841.16;;;17.40;96.89
62791;BME280;48830;53.426;10.300;2022-07-22T06:06:52;101846.38;;;17.40;97.11
62791;BME280;48830;53.426;10.300;2022-07-22T06:09:18;101842.91;;;17.38;97.15
62791;BME280;48830;53.426;10.300;2022-07-22T06:11:44;101847.22;;;17.36;97.18
62791;BME280;48830;53.426;10.300;2022-07-22T06:14:10;101849.81;;;17.33;97.28
62791;BME280;48830;53.426;10.300;2022-07-22T06:16:35;101846.34;;;17.36;97.13
62791;BME280;48830;53.426;10.300;2022-07-22T06:19:02;101852.41;;;17.33;96.95
62791;BME280;48830;53.426;10.300;2022-07-22T06:21:27;101850.63;;;17.26;97.23
62791;BME280;48830;53.426;10.300;2022-07-22T06:23:53;101855.81;;;17.24;96.10
62791;BME280;48830;53.426;10.300;2022-07-22T06:26:19;101850.63;;;17.24;95.38
62791;BME280;48830;53.426;10.300;2022-07-22T06:28:45;101849.81;;;17.41;94.75
62791;BME280;48830;53.426;10.300;2022-07-22T06:31:10;101850.75;;;17.59;95.08
62791;BME280;48830;53.426;10.300;2022-07-22T06:33:36;101853.38;;;17.69;93.88
62791;BME280;48830;53.426;10.300;2022-07-22T06:36:03;101848.25;;;17.84;93.43
62791;BME280;48830;53.426;10.300;2022-07-22T06:38:30;101850.94;;;18.15;92.31
62791;BME280;48830;53.426;10.300;2022-07-22T06:41:14;101854.41;;;18.47;90.62
62791;BME280;48830;53.426;10.300;2022-07-22T06:44:07;101847.44;;;18.66;88.79
62791;BME280;48830;53.426;10.300;2022-07-22T06:46:55;101844.88;;;18.68;89.66
62791;BME280;48830;53.426;10.300;2022-07-22T06:49:21;101842.25;;;18.63;89.08
62791;BME280;48830;53.426;10.300;2022-07-22T06:51:47;101844.00;;;18.62;89.14
62791;BME280;48830;53.426;10.300;2022-07-22T06:54:12;101844.84;;;18.55;88.26
62791;BME280;48830;53.426;10.300;2022-07-22T06:56:38;101856.13;;;18.54;88.29
62791;BME280;48830;53.426;10.300;2022-07-22T06:59:04;101857.88;;;18.48;88.13
62791;BME280;48830;53.426;10.300;2022-07-22T07:01:30;101854.41;;;18.46;88.53
62791;BME280;48830;53.426;10.300;2022-07-22T07:03:59;101857.03;;;18.41;87.61
62791;BME280;48830;53.426;10.300;2022-07-22T07:06:24;101862.22;;;18.47;87.40
62791;BME280;48830;53.426;10.300;2022-07-22T07:09:22;101856.16;;;18.68;86.58
62791;BME280;48830;53.426;10.300;2022-07-22T07:12:00;101858.72;;;19.00;86.84
62791;BME280;48830;53.426;10.300;2022-07-22T07:14:48;101858.69;;;19.06;84.78
62791;BME280;48830;53.426;10.300;2022-07-22T07:17:14;101854.31;;;19.19;84.07
62791;BME280;48830;53.426;10.300;2022-07-22T07:19:41;101850.75;;;19.35;83.35
62791;BME280;48830;53.426;10.300;2022-07-22T07:22:07;101859.41;;;19.50;82.84
62791;BME280;48830;53.426;10.300;2022-07-22T07:24:32;101855.09;;;19.41;83.10
62791;BME280;48830;53.426;10.300;2022-07-22T07:26:58;101858.44;;;19.74;81.70
62791;BME280;48830;53.426;10.300;2022-07-22T07:29:23;101862.00;;;19.54;81.84
62791;BME280;48830;53.426;10.300;2022-07-22T07:31:49;101860.34;;;19.35;81.86
62791;BME280;48830;53.426;10.300;2022-07-22T07:34:14;101856.88;;;19.30;82.18
62791;BME280;48830;53.426;10.300;2022-07-22T07:36:40;101851.69;;;19.27;81.59
62791;BME280;48830;53.426;10.300;2022-07-22T07:39:06;101853.44;;;19.15;82.03
62791;BME280;48830;53.426;10.300;2022-07-22T07:41:31;101859.56;;;19.05;82.09
62791;BME280;48830;53.426;10.300;2022-07-22T07:43:57;101863.94;;;18.82;82.21
62791;BME280;48830;53.426;10.300;2022-07-22T07:46:22;101864.78;;;18.88;81.94
62791;BME280;48830;53.426;10.300;2022-07-22T07:48:49;101868.31;;;18.84;82.47
62791;BME280;48830;53.426;10.300;2022-07-22T07:51:15;101865.66;;;19.01;81.75
62791;BME280;48830;53.426;10.300;2022-07-22T07:53:41;101866.44;;;19.28;81.47
62791;BME280;48830;53.426;10.300;2022-07-22T07:56:07;101863.78;;;19.40;81.14
62791;BME280;48830;53.426;10.300;2022-07-22T07:58:32;101876.75;;;19.57;79.17
62791;BME280;48830;53.426;10.300;2022-07-22T08:00:58;101880.97;;;19.90;79.39
62791;BME280;48830;53.426;10.300;2022-07-22T08:03:24;101881.84;;;19.89;78.53
62791;BME280;48830;53.426;10.300;2022-07-22T08:05:49;101878.41;;;19.82;77.85
62791;BME280;48830;53.426;10.300;2022-07-22T08:08:19;101882.72;;;19.85;76.81
62791;BME280;48830;53.426;10.300;2022-07-22T08:10:46;101889.81;;;19.64;76.96
62791;BME280;48830;53.426;10.300;2022-07-22T08:13:42;101888.88;;;19.75;75.66
62791;BME280;48830;53.426;10.300;2022-07-22T08:16:40;101890.66;;;19.71;75.77
62791;BME280;48830;53.426;10.300;2022-07-22T08:19:06;101896.63;;;19.90;75.19
62791;BME280;48830;53.426;10.300;2022-07-22T08:21:31;101897.47;;;19.97;74.60
62791;BME280;48830;53.426;10.300;2022-07-22T08:23:59;101891.41;;;19.90;75.00
62791;BME280;48830;53.426;10.300;2022-07-22T08:26:25;101901.75;;;20.05;73.65
62791;BME280;48830;53.426;10.300;2022-07-22T08:28:51;101903.56;;;19.94;73.85
62791;BME280;48830;53.426;10.300;2022-07-22T08:31:16;101910.53;;;19.89;74.32
62791;BME280;48830;53.426;10.300;2022-07-22T08:33:43;101903.59;;;19.91;74.15
62791;BME280;48830;53.426;10.300;2022-07-22T08:36:09;101911.38;;;19.94;73.63
62791;BME280;48830;53.426;10.300;2022-07-22T08:38:34;101906.94;;;20.07;73.42
62791;BME280;48830;53.426;10.300;2022-07-22T08:41:01;101906.03;;;20.17;73.48
62791;BME280;48830;53.426;10.300;2022-07-22T08:43:27;101899.84;;;20.30;72.48
62791;BME280;48830;53.426;10.300;2022-07-22T08:45:52;101904.16;;;20.37;72.36
62791;BME280;48830;53.426;10.300;2022-07-22T08:48:20;101908.34;;;20.61;72.02
62791;BME280;48830;53.426;10.300;2022-07-22T08:51:01;101911.75;;;20.73;70.55
62791;BME280;48830;53.426;10.300;2022-07-22T08:53:34;101911.81;;;20.63;70.38
62791;BME280;48830;53.426;10.300;2022-07-22T08:56:06;101914.25;;;20.82;68.88
62791;BME280;48830;53.426;10.300;2022-07-22T08:58:32;101916.66;;;21.06;68.31
62791;BME280;48830;53.426;10.300;2022-07-22T09:01:11;101912.88;;;21.35;67.55
62791;BME280;48830;53.426;10.300;2022-07-22T09:03:55;101923.56;;;21.12;68.57
62791;BME280;48830;53.426;10.300;2022-07-22T09:06:24;101917.81;;;20.75;69.98
62791;BME280;48830;53.426;10.300;2022-07-22T09:11:42;101922.00;;;20.91;70.08
62791;BME280;48830;53.426;10.300;2022-07-22T09:14:43;101917.94;;;20.59;70.12
62791;BME280;48830;53.426;10.300;2022-07-22T09:17:36;101927.47;;;20.66;70.66
62791;BME280;48830;53.426;10.300;2022-07-22T09:20:42;101920.38;;;20.81;70.81
62791;BME280;48830;53.426;10.300;2022-07-22T09:23:39;101927.22;;;20.94;70.10
62791;BME280;48830;53.426;10.300;2022-07-22T09:26:05;101927.13;;;21.03;69.85
62791;BME280;48830;53.426;10.300;2022-07-22T09:29:04;101918.38;;;21.07;70.49
62791;BME280;48830;53.426;10.300;2022-07-22T09:31:32;101920.97;;;21.10;70.14
62791;BME280;48830;53.426;10.300;2022-07-22T09:34:26;101918.50;;;20.92;70.50
62791;BME280;48830;53.426;10.300;2022-07-22T09:36:56;101920.16;;;21.02;69.92
62791;BME280;48830;53.426;10.300;2022-07-22T09:39:32;101919.38;;;20.94;70.53
62791;BME280;48830;53.426;10.300;2022-07-22T09:42:05;101925.38;;;21.05;70.59
62791;BME280;48830;53.426;10.300;2022-07-22T09:44:31;101920.84;;;21.19;69.19
62791;BME280;48830;53.426;10.300;2022-07-22T09:47:02;101916.28;;;21.43;67.15
62791;BME280;48830;53.426;10.300;2022-07-22T09:49:48;101923.19;;;21.48;67.61
62791;BME280;48830;53.426;10.300;2022-07-22T09:52:34;101915.97;;;21.67;65.99
62791;BME280;48830;53.426;10.300;2022-07-22T09:55:06;101917.22;;;22.04;64.66
62791;BME280;48830;53.426;10.300;2022-07-22T09:57:32;101919.28;;;22.96;64.54
62791;BME280;48830;53.426;10.300;2022-07-22T09:59:57;101913.59;;;23.19;61.17
62791;BME280;48830;53.426;10.300;2022-07-22T10:05:16;101928.59;;;22.61;62.17
62791;BME280;48830;53.426;10.300;2022-07-22T10:07:44;101927.66;;;22.05;62.02
62791;BME280;48830;53.426;10.300;2022-07-22T10:10:16;101931.66;;;22.32;62.20
62791;BME280;48830;53.426;10.300;2022-07-22T10:12:42;101930.91;;;22.25;62.22
62791;BME280;48830;53.426;10.300;2022-07-22T10:15:09;101927.09;;;22.46;62.00
62791;BME280;48830;53.426;10.300;2022-07-22T10:17:36;101931.22;;;23.12;60.89
62791;BME280;48830;53.426;10.300;2022-07-22T10:20:05;101926.63;;;23.25;58.53
62791;BME280;48830;53.426;10.300;2022-07-22T10:25:10;101930.88;;;22.29;62.02
62791;BME280;48830;53.426;10.300;2022-07-22T10:30:37;101931.22;;;22.02;63.67
62791;BME280;48830;53.426;10.300;2022-07-22T10:33:15;101934.69;;;22.03;63.84
62791;BME280;48830;53.426;10.300;2022-07-22T10:38:09;101942.13;;;21.69;62.88
62791;BME280;48830;53.426;10.300;2022-07-22T10:41:00;101944.16;;;21.44;63.59
62791;BME280;48830;53.426;10.300;2022-07-22T10:43:31;101942.44;;;21.43;62.83
62791;BME280;48830;53.426;10.300;2022-07-22T10:45:59;101944.28;;;21.29;63.30
62791;BME280;48830;53.426;10.300;2022-07-22T10:51:21;101951.44;;;21.11;62.90
62791;BME280;48830;53.426;10.300;2022-07-22T10:53:55;101945.97;;;21.39;63.08
62791;BME280;48830;53.426;10.300;2022-07-22T10:56:27;101944.25;;;21.38;62.73
62791;BME280;48830;53.426;10.300;2022-07-22T10:58:59;101944.81;;;21.63;61.90
62791;BME280;48830;53.426;10.300;2022-07-22T11:01:30;101942.03;;;21.77;61.33
62791;BME280;48830;53.426;10.300;2022-07-22T11:04:07;101944.09;;;22.19;60.64
62791;BME280;48830;53.426;10.300;2022-07-22T11:06:33;101941.50;;;22.16;61.26
62791;BME280;48830;53.426;10.300;2022-07-22T11:09:07;101933.88;;;22.01;61.00
62791;BME280;48830;53.426;10.300;2022-07-22T11:11:53;101943.19;;;22.20;61.08
62791;BME280;48830;53.426;10.300;2022-07-22T11:14:33;101939.84;;;22.12;60.19
62791;BME280;48830;53.426;10.300;2022-07-22T11:17:07;101940.03;;;21.97;60.40
62791;BME280;48830;53.426;10.300;2022-07-22T11:19:34;101938.22;;;22.02;60.85
62791;BME280;48830;53.426;10.300;2022-07-22T11:22:21;101938.63;;;22.33;59.48
62791;BME280;48830;53.426;10.300;2022-07-22T11:24:48;101937.19;;;22.69;56.96
62791;BME280;48830;53.426;10.300;2022-07-22T11:27:16;101935.84;;;22.99;55.92
62791;BME280;48830;53.426;10.300;2022-07-22T11:29:42;101938.72;;;23.32;55.01
62791;BME280;48830;53.426;10.300;2022-07-22T11:32:12;101933.81;;;23.15;54.65
62791;BME280;48830;53.426;10.300;2022-07-22T11:34:40;101930.44;;;23.09;56.83
62791;BME280;48830;53.426;10.300;2022-07-22T11:37:13;101938.63;;;23.37;56.91
62791;BME280;48830;53.426;10.300;2022-07-22T11:39:38;101922.91;;;23.35;55.52
62791;BME280;48830;53.426;10.300;2022-07-22T11:44:32;101932.25;;;23.50;56.11
62791;BME280;48830;53.426;10.300;2022-07-22T11:46:58;101935.25;;;23.31;56.45
62791;BME280;48830;53.426;10.300;2022-07-22T11:49:27;101937.16;;;23.22;57.04
62791;BME280;48830;53.426;10.300;2022-07-22T11:51:53;101934.34;;;23.33;57.24
62791;BME280;48830;53.426;10.300;2022-07-22T11:54:19;101934.47;;;23.26;57.82
62791;BME280;48830;53.426;10.300;2022-07-22T11:56:45;101939.16;;;23.08;55.62
62791;BME280;48830;53.426;10.300;2022-07-22T11:59:17;101938.31;;;23.07;54.45
62791;BME280;48830;53.426;10.300;2022-07-22T12:01:44;101936.75;;;22.97;55.18
62791;BME280;48830;53.426;10.300;2022-07-22T12:04:13;101937.88;;;23.31;55.19
62791;BME280;48830;53.426;10.300;2022-07-22T12:06:41;101945.03;;;22.72;56.19
62791;BME280;48830;53.426;10.300;2022-07-22T12:09:13;101949.06;;;22.92;57.45
62791;BME280;48830;53.426;10.300;2022-07-22T12:11:41;101952.44;;;23.00;58.03
62791;BME280;48830;53.426;10.300;2022-07-22T12:14:14;101945.75;;;22.80;56.98
62791;BME280;48830;53.426;10.300;2022-07-22T12:16:41;101936.19;;;23.27;56.36
62791;BME280;48830;53.426;10.300;2022-07-22T12:19:09;101938.13;;;23.61;54.63
62791;BME280;48830;53.426;10.300;2022-07-22T12:21:50;101944.28;;;23.63;54.41
62791;BME280;48830;53.426;10.300;2022-07-22T12:24:37;101933.38;;;23.81;52.59
62791;BME280;48830;53.426;10.300;2022-07-22T12:27:05;101928.63;;;23.55;53.26
62791;BME280;48830;53.426;10.300;2022-07-22T12:29:42;101931.97;;;23.62;53.67
62791;BME280;48830;53.426;10.300;2022-07-22T12:32:10;101930.06;;;23.73;53.08
62791;BME280;48830;53.426;10.300;2022-07-22T12:37:24;101934.16;;;24.24;52.12
62791;BME280;48830;53.426;10.300;2022-07-22T12:42:32;101932.69;;;24.12;53.17
62791;BME280;48830;53.426;10.300;2022-07-22T12:50:36;101918.84;;;24.04;53.58
62791;BME280;48830;53.426;10.300;2022-07-22T12:53:05;101914.81;;;23.89;53.30
62791;BME280;48830;53.426;10.300;2022-07-22T12:58:08;101923.69;;;23.83;53.61
62791;BME280;48830;53.426;10.300;2022-07-22T13:00:36;101920.63;;;23.62;54.82
62791;BME280;48830;53.426;10.300;2022-07-22T13:03:03;101922.66;;;23.49;55.30
62791;BME280;48830;53.426;10.300;2022-07-22T13:05:29;101920.50;;;23.24;55.88
62791;BME280;48830;53.426;10.300;2022-07-22T13:07:54;101918.56;;;23.36;55.96
62791;BME280;48830;53.426;10.300;2022-07-22T13:10:22;101910.78;;;23.31;55.35
62791;BME280;48830;53.426;10.300;2022-07-22T13:12:48;101916.22;;;23.20;55.42
62791;BME280;48830;53.426;10.300;2022-07-22T13:15:14;101917.53;;;22.98;55.77
62791;BME280;48830;53.426;10.300;2022-07-22T13:17:40;101907.84;;;23.45;57.39
62791;BME280;48830;53.426;10.300;2022-07-22T13:20:07;101901.28;;;23.67;57.01